Weather at Ganges (Lady Minto / Gulf Islands Hospital) Heliport

Public forecast

Using degrees Celsius for public forecast. Weather courtesy of forecast.io.

Closest aviation weather report (METAR) to Ganges (Lady Minto / Gulf Islands Hospital) Heliport

Closest report is Victoria International Airport, 13.3 nm (24.7 km) SSE.

2024/05/26 21:00 (retrieved 14 minutes ago)

CYYJ 262100Z 14011KT 20SM FEW017 BKN036 OVC055 12/12 A3010 RMK SC2SC5SC1 SLP195

Closest aviation forecast (TAF) to Ganges (Lady Minto / Gulf Islands Hospital) Heliport

Closest forecast is Victoria International Airport, 13.3 nm (24.7 km) SSE.

2024/05/26 18:42 (retrieved 3 hours ago)

TAF CYYJ 261740Z 2618/2718 14010KT P6SM SCT015 OVC040 TEMPO 2618/2718 5SM -SHRA BR BKN015 OVC040 BECMG 2702/2704 VRB03KT RMK NXT FCST BY 270000Z